PST,Max TemperatureF,Mean TemperatureF,Min TemperatureF,Max Dew PointF,MeanDew PointF,Min DewpointF,Max Humidity, Mean Humidity, Min Humidity, Max Sea Level PressureIn, Mean Sea Level PressureIn, Min Sea Level PressureIn, Max VisibilityMiles, Mean VisibilityMiles, Min VisibilityMiles, Max Wind SpeedMPH, Mean Wind SpeedMPH, Max Gust SpeedMPH,PrecipitationIn, CloudCover, Events, WindDirDegrees
2012-12-1,57,55,53,55,54,52,100,96,88,30.05,29.99,29.89,10,6,1,18,12,30,0.65,8,,165
2012-12-2,57,52,46,55,52,45,100,95,88,30.11,29.91,29.71,10,7,1,28,14,39,0.92,6,,170
2012-12-3,138,91,44,52,47,41,100,86,67,30.20,30.16,30.08,10,10,9,10,4,,0.00,1,,118
2012-12-4,57,52,48,54,51,46,100,91,82,30.26,30.21,30.18,10,9,4,16,2,21,0.16,8,,103
2012-12-5,55,50,46,55,52,46,100,98,93,30.20,30.15,30.12,10,2,0,18,7,26,0.53,8,,121
2012-12-6,53,48,44,54,51,45,100,100,100,30.13,30.09,30.06,10,3,0,6,1,,0.00,6,,295
2012-12-7,57,48,39,50,43,37,100,88,54,30.12,30.08,30.06,10,9,0,9,1,,0.00,0,,97
2012-12-8,73,55,37,54,37,28,100,73,47,30.10,30.05,30.02,10,10,10,9,3,,0.00,0,,104
2012-12-9,60,48,37,45,41,36,100,79,52,30.20,30.13,30.06,10,10,9,7,1,,0.00,0,,306
2012-12-10,60,50,39,50,44,37,100,84,55,30.24,30.18,30.11,10,9,1,7,1,,0.00,0,,271
2012-12-11,59,50,41,48,42,36,100,77,48,30.11,29.96,29.79,10,8,2,15,5,22,0.07,1,,156
2012-12-12,48,44,39,45,41,37,100,89,71,29.88,29.83,29.78,10,10,4,12,8,17,0.02,7,,152
2012-12-13,48,42,35,37,36,34,100,86,66,29.90,29.85,29.81,10,10,10,8,2,,0.00,2,,67
2012-12-14,46,40,33,37,34,32,93,82,62,30.00,29.88,29.79,10,10,10,9,5,,0.00,4,,115
2012-12-15,44,38,32,37,34,30,100,82,61,30.07,30.03,29.99,10,10,4,10,5,,0.01,3,,122
2012-12-16,48,44,41,46,39,34,100,80,58,30.11,30.06,30.00,10,8,2,16,6,25,0.15,8,,133
2012-12-17,51,48,44,48,47,43,100,97,88,30.04,29.98,29.94,10,6,0,18,11,31,0.96,6,,177
2012-12-18,44,38,32,45,34,27,100,84,49,30.12,29.99,29.91,10,8,0,10,1,18,0.01,3,,330
2012-12-19,46,39,32,30,25,18,81,62,34,30.27,30.21,30.12,10,10,10,10,5,,0.00,0,,114
2012-12-20,53,43,33,30,25,21,81,49,30,30.22,30.11,30.01,10,10,10,13,7,20,0.00,0,,146
2012-12-21,48,44,41,45,31,21,100,63,34,30.01,29.94,29.86,10,8,2,29,10,40,0.32,6,,144
2012-12-22,50,46,42,46,43,41,100,92,82,30.08,29.94,29.80,10,8,2,22,11,32,0.90,7,,175
2012-12-23,46,45,44,46,44,43,100,94,87,30.08,29.95,29.86,10,6,1,26,11,37,1.27,8,,164
2012-12-24,51,44,37,46,42,36,100,91,66,30.18,30.11,29.97,10,8,0,10,5,,0.00,3,,175
2012-12-25,46,42,39,43,38,34,100,84,70,30.13,29.98,29.78,10,7,2,17,7,23,0.98,5,,130
2012-12-26,46,42,37,45,42,36,100,99,87,30.05,29.91,29.80,10,5,0,13,8,22,0.15,6,,197
2012-12-27,48,40,33,41,37,32,100,89,71,30.13,30.09,30.04,10,10,9,9,3,,0.00,1,,48
2012-12-28,44,40,35,37,34,32,93,77,61,30.17,30.11,30.04,10,10,10,10,4,,0.00,4,,116
2012-12-29,53,46,37,37,34,30,93,68,44,30.05,30.02,29.98,10,10,10,7,3,,0.00,6,,74
2012-12-30,51,42,32,37,31,21,100,67,41,30.11,30.04,30.00,10,10,10,8,4,,0.00,1,,17
2012-12-31,48,40,32,36,29,19,93,67,46,30.26,30.20,30.11,10,10,10,12,3,,0.00,0,,105